sensor_id;sensor_type;location;lat;lon;timestamp;P1;durP1;ratioP1;P2;durP2;ratioP2
25123;SDS011;13104;51.030;4.686;2022-08-16T00:01:30;9.73;;;8.70;;
25123;SDS011;13104;51.030;4.686;2022-08-16T00:03:57;10.77;;;8.88;;
25123;SDS011;13104;51.030;4.686;2022-08-16T00:06:24;9.07;;;7.93;;
25123;SDS011;13104;51.030;4.686;2022-08-16T00:08:50;9.13;;;8.07;;
25123;SDS011;13104;51.030;4.686;2022-08-16T00:11:16;10.60;;;8.35;;
25123;SDS011;13104;51.030;4.686;2022-08-16T00:13:46;11.23;;;7.65;;
25123;SDS011;13104;51.030;4.686;2022-08-16T00:16:12;9.20;;;7.68;;
25123;SDS011;13104;51.030;4.686;2022-08-16T00:18:38;11.40;;;8.57;;
25123;SDS011;13104;51.030;4.686;2022-08-16T00:21:04;10.88;;;8.93;;
25123;SDS011;13104;51.030;4.686;2022-08-16T00:23:30;11.68;;;8.65;;
25123;SDS011;13104;51.030;4.686;2022-08-16T00:25:56;13.63;;;9.43;;
25123;SDS011;13104;51.030;4.686;2022-08-16T00:28:23;10.32;;;9.05;;
25123;SDS011;13104;51.030;4.686;2022-08-16T00:30:49;11.85;;;9.50;;
25123;SDS011;13104;51.030;4.686;2022-08-16T00:33:15;11.25;;;9.52;;
25123;SDS011;13104;51.030;4.686;2022-08-16T00:35:41;14.10;;;9.85;;
25123;SDS011;13104;51.030;4.686;2022-08-16T00:38:07;11.70;;;8.68;;
25123;SDS011;13104;51.030;4.686;2022-08-16T00:40:38;17.08;;;10.10;;
25123;SDS011;13104;51.030;4.686;2022-08-16T00:43:15;11.38;;;9.93;;
25123;SDS011;13104;51.030;4.686;2022-08-16T00:46:00;11.00;;;9.70;;
25123;SDS011;13104;51.030;4.686;2022-08-16T00:48:29;17.83;;;9.70;;
25123;SDS011;13104;51.030;4.686;2022-08-16T00:50:55;10.63;;;8.52;;
25123;SDS011;13104;51.030;4.686;2022-08-16T00:53:22;13.20;;;8.95;;
25123;SDS011;13104;51.030;4.686;2022-08-16T00:55:49;9.85;;;8.85;;
25123;SDS011;13104;51.030;4.686;2022-08-16T00:58:16;10.50;;;8.18;;
25123;SDS011;13104;51.030;4.686;2022-08-16T01:00:43;10.93;;;8.10;;
25123;SDS011;13104;51.030;4.686;2022-08-16T01:03:11;12.52;;;8.65;;
25123;SDS011;13104;51.030;4.686;2022-08-16T01:05:38;11.30;;;8.52;;
25123;SDS011;13104;51.030;4.686;2022-08-16T01:08:05;12.95;;;9.68;;
25123;SDS011;13104;51.030;4.686;2022-08-16T01:10:31;11.15;;;10.00;;
25123;SDS011;13104;51.030;4.686;2022-08-16T01:12:58;13.75;;;10.70;;
25123;SDS011;13104;51.030;4.686;2022-08-16T01:15:25;12.55;;;10.90;;
25123;SDS011;13104;51.030;4.686;2022-08-16T01:17:51;15.77;;;10.63;;
25123;SDS011;13104;51.030;4.686;2022-08-16T01:20:18;14.57;;;11.10;;
25123;SDS011;13104;51.030;4.686;2022-08-16T01:25:14;14.55;;;11.13;;
25123;SDS011;13104;51.030;4.686;2022-08-16T01:27:51;13.40;;;10.48;;
25123;SDS011;13104;51.030;4.686;2022-08-16T01:30:28;15.23;;;11.65;;
25123;SDS011;13104;51.030;4.686;2022-08-16T01:32:56;15.90;;;10.57;;
25123;SDS011;13104;51.030;4.686;2022-08-16T01:35:24;16.17;;;10.60;;
25123;SDS011;13104;51.030;4.686;2022-08-16T01:37:53;12.25;;;10.65;;
25123;SDS011;13104;51.030;4.686;2022-08-16T01:40:21;15.35;;;10.98;;
25123;SDS011;13104;51.030;4.686;2022-08-16T01:42:47;15.73;;;10.80;;
25123;SDS011;13104;51.030;4.686;2022-08-16T01:45:15;17.20;;;11.00;;
25123;SDS011;13104;51.030;4.686;2022-08-16T01:47:41;13.15;;;10.57;;
25123;SDS011;13104;51.030;4.686;2022-08-16T01:50:08;13.75;;;11.73;;
25123;SDS011;13104;51.030;4.686;2022-08-16T01:52:34;14.40;;;11.15;;
25123;SDS011;13104;51.030;4.686;2022-08-16T01:55:00;14.13;;;11.63;;
25123;SDS011;13104;51.030;4.686;2022-08-16T01:57:27;16.77;;;10.75;;
25123;SDS011;13104;51.030;4.686;2022-08-16T01:59:53;16.95;;;11.95;;
25123;SDS011;13104;51.030;4.686;2022-08-16T02:02:19;15.15;;;11.40;;
25123;SDS011;13104;51.030;4.686;2022-08-16T02:04:48;18.65;;;11.65;;
25123;SDS011;13104;51.030;4.686;2022-08-16T02:07:14;13.23;;;11.10;;
25123;SDS011;13104;51.030;4.686;2022-08-16T02:09:42;13.63;;;11.30;;
25123;SDS011;13104;51.030;4.686;2022-08-16T02:12:09;12.10;;;10.90;;
25123;SDS011;13104;51.030;4.686;2022-08-16T02:14:35;15.68;;;11.73;;
25123;SDS011;13104;51.030;4.686;2022-08-16T02:17:02;16.23;;;11.98;;
25123;SDS011;13104;51.030;4.686;2022-08-16T02:19:30;20.95;;;14.00;;
25123;SDS011;13104;51.030;4.686;2022-08-16T02:21:57;18.58;;;15.40;;
25123;SDS011;13104;51.030;4.686;2022-08-16T02:24:24;18.63;;;15.55;;
25123;SDS011;13104;51.030;4.686;2022-08-16T02:26:50;21.65;;;15.90;;
25123;SDS011;13104;51.030;4.686;2022-08-16T02:29:17;19.15;;;15.27;;
25123;SDS011;13104;51.030;4.686;2022-08-16T02:31:47;20.05;;;16.58;;
25123;SDS011;13104;51.030;4.686;2022-08-16T02:34:14;15.63;;;13.98;;
25123;SDS011;13104;51.030;4.686;2022-08-16T02:36:41;22.17;;;15.93;;
25123;SDS011;13104;51.030;4.686;2022-08-16T02:39:08;18.13;;;15.90;;
25123;SDS011;13104;51.030;4.686;2022-08-16T02:41:35;22.20;;;16.50;;
25123;SDS011;13104;51.030;4.686;2022-08-16T02:44:02;19.27;;;15.63;;
25123;SDS011;13104;51.030;4.686;2022-08-16T02:46:28;23.25;;;16.50;;
25123;SDS011;13104;51.030;4.686;2022-08-16T02:48:54;15.85;;;14.15;;
25123;SDS011;13104;51.030;4.686;2022-08-16T02:51:20;19.08;;;13.73;;
25123;SDS011;13104;51.030;4.686;2022-08-16T02:53:47;20.25;;;15.05;;
25123;SDS011;13104;51.030;4.686;2022-08-16T02:56:14;18.63;;;15.18;;
25123;SDS011;13104;51.030;4.686;2022-08-16T02:58:40;20.27;;;14.48;;
25123;SDS011;13104;51.030;4.686;2022-08-16T03:01:06;18.27;;;14.20;;
25123;SDS011;13104;51.030;4.686;2022-08-16T03:03:34;22.10;;;13.38;;
25123;SDS011;13104;51.030;4.686;2022-08-16T03:06:02;19.08;;;14.18;;
25123;SDS011;13104;51.030;4.686;2022-08-16T03:08:31;17.38;;;12.93;;
25123;SDS011;13104;51.030;4.686;2022-08-16T03:10:57;22.15;;;14.15;;
25123;SDS011;13104;51.030;4.686;2022-08-16T03:13:23;16.58;;;13.75;;
25123;SDS011;13104;51.030;4.686;2022-08-16T03:15:49;16.25;;;12.80;;
25123;SDS011;13104;51.030;4.686;2022-08-16T03:18:16;16.85;;;11.88;;
25123;SDS011;13104;51.030;4.686;2022-08-16T03:20:42;18.65;;;12.57;;
25123;SDS011;13104;51.030;4.686;2022-08-16T03:23:08;17.60;;;11.70;;
25123;SDS011;13104;51.030;4.686;2022-08-16T03:25:34;17.67;;;11.20;;
25123;SDS011;13104;51.030;4.686;2022-08-16T03:28:02;13.65;;;11.45;;
25123;SDS011;13104;51.030;4.686;2022-08-16T03:30:29;13.95;;;10.57;;
25123;SDS011;13104;51.030;4.686;2022-08-16T03:32:55;14.38;;;11.13;;
25123;SDS011;13104;51.030;4.686;2022-08-16T03:35:23;14.45;;;10.80;;
25123;SDS011;13104;51.030;4.686;2022-08-16T03:37:52;14.43;;;10.43;;
25123;SDS011;13104;51.030;4.686;2022-08-16T03:40:20;17.70;;;11.75;;
25123;SDS011;13104;51.030;4.686;2022-08-16T03:42:46;13.35;;;10.85;;
25123;SDS011;13104;51.030;4.686;2022-08-16T03:45:13;12.38;;;9.50;;
25123;SDS011;13104;51.030;4.686;2022-08-16T03:47:39;14.95;;;10.23;;
25123;SDS011;13104;51.030;4.686;2022-08-16T03:50:06;15.95;;;11.10;;
25123;SDS011;13104;51.030;4.686;2022-08-16T03:52:32;12.98;;;10.93;;
25123;SDS011;13104;51.030;4.686;2022-08-16T03:54:59;13.82;;;9.90;;
25123;SDS011;13104;51.030;4.686;2022-08-16T03:57:26;19.15;;;11.50;;
25123;SDS011;13104;51.030;4.686;2022-08-16T03:59:53;11.85;;;10.55;;
25123;SDS011;13104;51.030;4.686;2022-08-16T04:02:19;17.45;;;9.60;;
25123;SDS011;13104;51.030;4.686;2022-08-16T04:04:46;13.25;;;10.25;;
25123;SDS011;13104;51.030;4.686;2022-08-16T04:07:13;13.02;;;10.70;;
25123;SDS011;13104;51.030;4.686;2022-08-16T04:09:40;17.23;;;10.43;;
25123;SDS011;13104;51.030;4.686;2022-08-16T04:12:07;12.55;;;8.68;;
25123;SDS011;13104;51.030;4.686;2022-08-16T04:14:33;12.32;;;9.48;;
25123;SDS011;13104;51.030;4.686;2022-08-16T04:16:59;13.88;;;9.65;;
25123;SDS011;13104;51.030;4.686;2022-08-16T04:19:26;11.80;;;9.32;;
25123;SDS011;13104;51.030;4.686;2022-08-16T04:21:52;12.38;;;9.40;;
25123;SDS011;13104;51.030;4.686;2022-08-16T04:24:19;10.48;;;9.25;;
25123;SDS011;13104;51.030;4.686;2022-08-16T04:26:48;13.73;;;9.20;;
25123;SDS011;13104;51.030;4.686;2022-08-16T04:29:14;11.35;;;9.13;;
25123;SDS011;13104;51.030;4.686;2022-08-16T04:31:41;12.27;;;9.50;;
25123;SDS011;13104;51.030;4.686;2022-08-16T04:34:07;10.48;;;8.55;;
25123;SDS011;13104;51.030;4.686;2022-08-16T04:36:33;11.73;;;8.80;;
25123;SDS011;13104;51.030;4.686;2022-08-16T04:38:59;10.77;;;9.27;;
25123;SDS011;13104;51.030;4.686;2022-08-16T04:41:25;11.98;;;8.88;;
25123;SDS011;13104;51.030;4.686;2022-08-16T04:43:55;12.45;;;9.45;;
25123;SDS011;13104;51.030;4.686;2022-08-16T04:46:22;11.48;;;8.82;;
25123;SDS011;13104;51.030;4.686;2022-08-16T04:48:48;9.77;;;8.73;;
25123;SDS011;13104;51.030;4.686;2022-08-16T04:51:14;12.07;;;9.10;;
25123;SDS011;13104;51.030;4.686;2022-08-16T04:53:40;10.40;;;9.32;;
25123;SDS011;13104;51.030;4.686;2022-08-16T04:56:07;15.95;;;9.60;;
25123;SDS011;13104;51.030;4.686;2022-08-16T04:58:33;12.75;;;9.23;;
25123;SDS011;13104;51.030;4.686;2022-08-16T05:00:59;11.90;;;9.98;;
25123;SDS011;13104;51.030;4.686;2022-08-16T05:03:26;14.10;;;9.32;;
25123;SDS011;13104;51.030;4.686;2022-08-16T05:05:52;15.38;;;9.63;;
25123;SDS011;13104;51.030;4.686;2022-08-16T05:08:18;11.52;;;9.70;;
25123;SDS011;13104;51.030;4.686;2022-08-16T05:10:44;13.15;;;9.73;;
25123;SDS011;13104;51.030;4.686;2022-08-16T05:13:10;14.60;;;10.23;;
25123;SDS011;13104;51.030;4.686;2022-08-16T05:15:37;19.10;;;11.90;;
25123;SDS011;13104;51.030;4.686;2022-08-16T05:18:03;14.52;;;10.07;;
25123;SDS011;13104;51.030;4.686;2022-08-16T05:20:29;14.45;;;9.45;;
25123;SDS011;13104;51.030;4.686;2022-08-16T05:22:56;14.32;;;9.70;;
25123;SDS011;13104;51.030;4.686;2022-08-16T05:25:22;12.68;;;9.48;;
25123;SDS011;13104;51.030;4.686;2022-08-16T05:27:48;12.85;;;10.73;;
25123;SDS011;13104;51.030;4.686;2022-08-16T05:30:15;16.92;;;11.05;;
25123;SDS011;13104;51.030;4.686;2022-08-16T05:32:41;17.45;;;10.77;;
25123;SDS011;13104;51.030;4.686;2022-08-16T05:35:08;14.13;;;10.27;;
25123;SDS011;13104;51.030;4.686;2022-08-16T05:37:38;15.30;;;10.98;;
25123;SDS011;13104;51.030;4.686;2022-08-16T05:40:05;15.55;;;11.48;;
25123;SDS011;13104;51.030;4.686;2022-08-16T05:42:31;15.88;;;11.48;;
25123;SDS011;13104;51.030;4.686;2022-08-16T05:44:57;16.02;;;11.60;;
25123;SDS011;13104;51.030;4.686;2022-08-16T05:47:25;17.00;;;11.50;;
25123;SDS011;13104;51.030;4.686;2022-08-16T05:49:51;14.63;;;11.40;;
25123;SDS011;13104;51.030;4.686;2022-08-16T05:52:17;16.88;;;12.88;;
25123;SDS011;13104;51.030;4.686;2022-08-16T05:54:43;20.05;;;12.73;;
25123;SDS011;13104;51.030;4.686;2022-08-16T05:57:10;15.18;;;12.25;;
25123;SDS011;13104;51.030;4.686;2022-08-16T05:59:36;18.45;;;13.20;;
25123;SDS011;13104;51.030;4.686;2022-08-16T06:02:03;15.82;;;12.20;;
25123;SDS011;13104;51.030;4.686;2022-08-16T06:04:29;16.70;;;12.57;;
25123;SDS011;13104;51.030;4.686;2022-08-16T06:06:55;19.23;;;11.45;;
25123;SDS011;13104;51.030;4.686;2022-08-16T06:09:21;22.27;;;12.07;;
25123;SDS011;13104;51.030;4.686;2022-08-16T06:11:48;16.67;;;11.60;;
25123;SDS011;13104;51.030;4.686;2022-08-16T06:14:14;19.70;;;12.00;;
25123;SDS011;13104;51.030;4.686;2022-08-16T06:16:40;16.67;;;12.52;;
25123;SDS011;13104;51.030;4.686;2022-08-16T06:19:06;17.75;;;12.68;;
25123;SDS011;13104;51.030;4.686;2022-08-16T06:21:32;17.92;;;12.32;;
25123;SDS011;13104;51.030;4.686;2022-08-16T06:23:58;20.38;;;12.30;;
25123;SDS011;13104;51.030;4.686;2022-08-16T06:26:25;15.15;;;11.95;;
25123;SDS011;13104;51.030;4.686;2022-08-16T06:28:51;17.27;;;12.25;;
25123;SDS011;13104;51.030;4.686;2022-08-16T06:31:17;14.40;;;11.35;;
25123;SDS011;13104;51.030;4.686;2022-08-16T06:33:43;15.98;;;12.32;;
25123;SDS011;13104;51.030;4.686;2022-08-16T06:36:10;15.02;;;12.15;;
25123;SDS011;13104;51.030;4.686;2022-08-16T06:38:36;14.73;;;11.73;;
25123;SDS011;13104;51.030;4.686;2022-08-16T06:41:04;15.05;;;10.65;;
25123;SDS011;13104;51.030;4.686;2022-08-16T06:43:30;13.88;;;10.68;;
25123;SDS011;13104;51.030;4.686;2022-08-16T06:45:57;16.75;;;11.43;;
25123;SDS011;13104;51.030;4.686;2022-08-16T06:48:23;20.02;;;11.25;;
25123;SDS011;13104;51.030;4.686;2022-08-16T06:50:49;17.52;;;11.77;;
25123;SDS011;13104;51.030;4.686;2022-08-16T06:53:16;17.35;;;11.15;;
25123;SDS011;13104;51.030;4.686;2022-08-16T06:55:42;18.63;;;11.45;;
25123;SDS011;13104;51.030;4.686;2022-08-16T06:58:08;17.30;;;11.20;;
25123;SDS011;13104;51.030;4.686;2022-08-16T07:00:35;18.33;;;11.15;;
25123;SDS011;13104;51.030;4.686;2022-08-16T07:03:02;15.88;;;10.85;;
25123;SDS011;13104;51.030;4.686;2022-08-16T07:05:28;14.43;;;10.32;;
25123;SDS011;13104;51.030;4.686;2022-08-16T07:07:55;14.77;;;9.85;;
25123;SDS011;13104;51.030;4.686;2022-08-16T07:10:22;17.48;;;10.20;;
25123;SDS011;13104;51.030;4.686;2022-08-16T07:12:48;15.38;;;10.35;;
25123;SDS011;13104;51.030;4.686;2022-08-16T07:15:16;16.33;;;9.73;;
25123;SDS011;13104;51.030;4.686;2022-08-16T07:17:43;11.95;;;9.43;;
25123;SDS011;13104;51.030;4.686;2022-08-16T07:20:09;16.35;;;9.43;;
25123;SDS011;13104;51.030;4.686;2022-08-16T07:22:36;17.90;;;9.45;;
25123;SDS011;13104;51.030;4.686;2022-08-16T07:25:03;12.13;;;9.48;;
25123;SDS011;13104;51.030;4.686;2022-08-16T07:27:30;18.33;;;9.55;;
25123;SDS011;13104;51.030;4.686;2022-08-16T07:29:56;12.82;;;9.23;;
25123;SDS011;13104;51.030;4.686;2022-08-16T07:32:22;12.68;;;7.97;;
25123;SDS011;13104;51.030;4.686;2022-08-16T07:34:48;11.30;;;8.50;;
25123;SDS011;13104;51.030;4.686;2022-08-16T07:37:14;11.23;;;8.50;;
25123;SDS011;13104;51.030;4.686;2022-08-16T07:39:41;14.00;;;8.75;;
25123;SDS011;13104;51.030;4.686;2022-08-16T07:42:07;17.00;;;9.10;;
25123;SDS011;13104;51.030;4.686;2022-08-16T07:44:33;15.90;;;8.80;;
25123;SDS011;13104;51.030;4.686;2022-08-16T07:46:59;13.48;;;8.95;;
25123;SDS011;13104;51.030;4.686;2022-08-16T07:49:25;14.52;;;8.07;;
25123;SDS011;13104;51.030;4.686;2022-08-16T07:51:51;12.88;;;7.13;;
25123;SDS011;13104;51.030;4.686;2022-08-16T07:54:17;14.77;;;8.27;;
25123;SDS011;13104;51.030;4.686;2022-08-16T07:56:44;10.40;;;7.30;;
25123;SDS011;13104;51.030;4.686;2022-08-16T07:59:10;14.85;;;7.90;;
25123;SDS011;13104;51.030;4.686;2022-08-16T08:01:37;11.80;;;6.93;;
25123;SDS011;13104;51.030;4.686;2022-08-16T08:04:04;11.45;;;6.97;;
25123;SDS011;13104;51.030;4.686;2022-08-16T08:06:32;10.50;;;6.55;;
25123;SDS011;13104;51.030;4.686;2022-08-16T08:08:59;11.32;;;6.38;;
25123;SDS011;13104;51.030;4.686;2022-08-16T08:11:28;9.88;;;6.57;;
25123;SDS011;13104;51.030;4.686;2022-08-16T08:13:54;12.30;;;6.93;;
25123;SDS011;13104;51.030;4.686;2022-08-16T08:16:24;10.45;;;5.90;;
25123;SDS011;13104;51.030;4.686;2022-08-16T08:18:50;10.10;;;6.50;;
25123;SDS011;13104;51.030;4.686;2022-08-16T08:21:22;9.15;;;6.10;;
25123;SDS011;13104;51.030;4.686;2022-08-16T08:23:49;8.75;;;6.00;;
25123;SDS011;13104;51.030;4.686;2022-08-16T08:26:16;15.40;;;6.28;;
25123;SDS011;13104;51.030;4.686;2022-08-16T08:28:43;11.68;;;5.95;;
25123;SDS011;13104;51.030;4.686;2022-08-16T08:31:09;11.65;;;6.55;;
25123;SDS011;13104;51.030;4.686;2022-08-16T08:33:35;13.07;;;5.88;;
25123;SDS011;13104;51.030;4.686;2022-08-16T08:36:03;15.60;;;6.15;;
25123;SDS011;13104;51.030;4.686;2022-08-16T08:38:31;12.80;;;5.50;;
25123;SDS011;13104;51.030;4.686;2022-08-16T08:40:59;8.13;;;5.13;;
25123;SDS011;13104;51.030;4.686;2022-08-16T08:43:25;9.50;;;4.88;;
25123;SDS011;13104;51.030;4.686;2022-08-16T08:48:36;8.75;;;4.78;;
25123;SDS011;13104;51.030;4.686;2022-08-16T08:51:06;10.45;;;5.18;;
25123;SDS011;13104;51.030;4.686;2022-08-16T08:53:35;9.57;;;4.72;;
25123;SDS011;13104;51.030;4.686;2022-08-16T08:56:02;9.68;;;4.50;;
25123;SDS011;13104;51.030;4.686;2022-08-16T08:58:31;10.88;;;4.72;;
25123;SDS011;13104;51.030;4.686;2022-08-16T09:00:57;7.82;;;4.35;;
25123;SDS011;13104;51.030;4.686;2022-08-16T09:03:23;11.40;;;4.70;;
25123;SDS011;13104;51.030;4.686;2022-08-16T09:05:50;7.30;;;4.25;;
25123;SDS011;13104;51.030;4.686;2022-08-16T09:08:16;13.85;;;4.10;;
25123;SDS011;13104;51.030;4.686;2022-08-16T09:10:42;11.55;;;4.15;;
25123;SDS011;13104;51.030;4.686;2022-08-16T09:13:09;10.07;;;4.18;;
25123;SDS011;13104;51.030;4.686;2022-08-16T09:15:37;9.35;;;4.20;;
25123;SDS011;13104;51.030;4.686;2022-08-16T09:18:07;11.07;;;4.47;;
25123;SDS011;13104;51.030;4.686;2022-08-16T09:20:36;10.18;;;4.40;;
25123;SDS011;13104;51.030;4.686;2022-08-16T09:23:02;6.57;;;3.78;;
25123;SDS011;13104;51.030;4.686;2022-08-16T09:25:28;9.30;;;4.45;;
25123;SDS011;13104;51.030;4.686;2022-08-16T09:27:58;7.07;;;4.00;;
25123;SDS011;13104;51.030;4.686;2022-08-16T09:30:24;13.30;;;4.60;;
25123;SDS011;13104;51.030;4.686;2022-08-16T09:32:50;14.13;;;4.30;;
25123;SDS011;13104;51.030;4.686;2022-08-16T09:35:19;8.25;;;3.92;;
25123;SDS011;13104;51.030;4.686;2022-08-16T09:37:48;11.95;;;4.05;;
25123;SDS011;13104;51.030;4.686;2022-08-16T09:40:15;11.82;;;4.20;;
25123;SDS011;13104;51.030;4.686;2022-08-16T09:42:42;8.95;;;4.45;;
25123;SDS011;13104;51.030;4.686;2022-08-16T09:45:08;11.10;;;4.15;;
25123;SDS011;13104;51.030;4.686;2022-08-16T09:47:35;15.70;;;4.65;;
25123;SDS011;13104;51.030;4.686;2022-08-16T09:50:08;9.95;;;4.30;;
25123;SDS011;13104;51.030;4.686;2022-08-16T09:52:35;14.20;;;4.20;;
25123;SDS011;13104;51.030;4.686;2022-08-16T09:55:05;13.50;;;4.43;;
25123;SDS011;13104;51.030;4.686;2022-08-16T09:57:36;8.32;;;4.03;;
25123;SDS011;13104;51.030;4.686;2022-08-16T10:00:03;14.23;;;4.30;;
25123;SDS011;13104;51.030;4.686;2022-08-16T10:02:31;8.05;;;3.78;;
25123;SDS011;13104;51.030;4.686;2022-08-16T10:05:00;12.55;;;4.45;;
25123;SDS011;13104;51.030;4.686;2022-08-16T10:07:26;9.43;;;4.18;;
25123;SDS011;13104;51.030;4.686;2022-08-16T10:09:53;8.23;;;4.57;;
25123;SDS011;13104;51.030;4.686;2022-08-16T10:12:19;6.55;;;4.32;;
25123;SDS011;13104;51.030;4.686;2022-08-16T10:15:04;8.32;;;4.07;;
25123;SDS011;13104;51.030;4.686;2022-08-16T10:17:32;7.78;;;3.88;;
25123;SDS011;13104;51.030;4.686;2022-08-16T10:19:59;7.53;;;4.22;;
25123;SDS011;13104;51.030;4.686;2022-08-16T10:22:25;9.02;;;4.25;;
25123;SDS011;13104;51.030;4.686;2022-08-16T10:24:51;7.28;;;3.63;;
25123;SDS011;13104;51.030;4.686;2022-08-16T10:27:17;5.90;;;3.97;;
25123;SDS011;13104;51.030;4.686;2022-08-16T10:29:45;10.32;;;3.83;;
25123;SDS011;13104;51.030;4.686;2022-08-16T10:32:11;8.57;;;4.60;;
25123;SDS011;13104;51.030;4.686;2022-08-16T10:34:37;10.05;;;4.22;;
25123;SDS011;13104;51.030;4.686;2022-08-16T10:37:03;7.05;;;4.05;;
25123;SDS011;13104;51.030;4.686;2022-08-16T10:39:29;12.75;;;4.35;;
25123;SDS011;13104;51.030;4.686;2022-08-16T10:41:55;5.28;;;3.83;;
25123;SDS011;13104;51.030;4.686;2022-08-16T10:44:22;11.88;;;4.18;;
25123;SDS011;13104;51.030;4.686;2022-08-16T10:46:48;6.53;;;3.60;;
25123;SDS011;13104;51.030;4.686;2022-08-16T10:49:14;5.72;;;4.03;;
25123;SDS011;13104;51.030;4.686;2022-08-16T10:51:40;8.95;;;3.95;;
25123;SDS011;13104;51.030;4.686;2022-08-16T10:54:06;8.40;;;3.67;;
25123;SDS011;13104;51.030;4.686;2022-08-16T10:56:32;7.25;;;4.07;;
25123;SDS011;13104;51.030;4.686;2022-08-16T10:58:59;9.32;;;4.32;;
25123;SDS011;13104;51.030;4.686;2022-08-16T11:01:25;7.28;;;4.15;;
25123;SDS011;13104;51.030;4.686;2022-08-16T11:03:52;8.13;;;4.28;;
25123;SDS011;13104;51.030;4.686;2022-08-16T11:06:19;10.32;;;4.60;;
25123;SDS011;13104;51.030;4.686;2022-08-16T11:08:45;8.95;;;4.30;;
25123;SDS011;13104;51.030;4.686;2022-08-16T11:11:11;6.25;;;4.13;;
25123;SDS011;13104;51.030;4.686;2022-08-16T11:13:39;6.90;;;3.40;;
25123;SDS011;13104;51.030;4.686;2022-08-16T11:16:05;7.28;;;3.70;;
25123;SDS011;13104;51.030;4.686;2022-08-16T11:18:31;7.93;;;3.97;;
25123;SDS011;13104;51.030;4.686;2022-08-16T11:20:57;11.48;;;3.97;;
25123;SDS011;13104;51.030;4.686;2022-08-16T11:23:24;8.20;;;4.20;;
25123;SDS011;13104;51.030;4.686;2022-08-16T11:25:51;11.20;;;4.25;;
25123;SDS011;13104;51.030;4.686;2022-08-16T11:28:17;8.32;;;4.28;;
25123;SDS011;13104;51.030;4.686;2022-08-16T11:30:44;8.27;;;3.90;;
25123;SDS011;13104;51.030;4.686;2022-08-16T11:33:10;7.25;;;3.67;;
25123;SDS011;13104;51.030;4.686;2022-08-16T11:35:37;6.20;;;3.90;;
25123;SDS011;13104;51.030;4.686;2022-08-16T11:38:04;8.27;;;3.70;;
25123;SDS011;13104;51.030;4.686;2022-08-16T11:40:33;8.30;;;4.03;;
25123;SDS011;13104;51.030;4.686;2022-08-16T11:43:02;11.32;;;4.13;;
25123;SDS011;13104;51.030;4.686;2022-08-16T11:45:30;8.05;;;4.20;;
25123;SDS011;13104;51.030;4.686;2022-08-16T11:47:56;11.50;;;4.22;;
25123;SDS011;13104;51.030;4.686;2022-08-16T11:50:24;8.70;;;4.07;;
25123;SDS011;13104;51.030;4.686;2022-08-16T11:52:50;7.97;;;3.85;;
25123;SDS011;13104;51.030;4.686;2022-08-16T11:55:17;7.68;;;4.10;;
25123;SDS011;13104;51.030;4.686;2022-08-16T11:57:43;7.93;;;4.05;;
25123;SDS011;13104;51.030;4.686;2022-08-16T12:00:11;4.97;;;3.90;;
25123;SDS011;13104;51.030;4.686;2022-08-16T12:02:38;6.25;;;4.03;;
25123;SDS011;13104;51.030;4.686;2022-08-16T12:05:05;7.68;;;4.18;;
25123;SDS011;13104;51.030;4.686;2022-08-16T12:07:31;9.07;;;4.35;;
25123;SDS011;13104;51.030;4.686;2022-08-16T12:09:58;8.07;;;4.60;;
25123;SDS011;13104;51.030;4.686;2022-08-16T12:12:24;8.82;;;4.40;;
25123;SDS011;13104;51.030;4.686;2022-08-16T12:14:50;5.93;;;3.97;;
25123;SDS011;13104;51.030;4.686;2022-08-16T12:17:18;7.55;;;3.90;;
25123;SDS011;13104;51.030;4.686;2022-08-16T12:19:47;9.40;;;4.15;;
25123;SDS011;13104;51.030;4.686;2022-08-16T12:22:13;5.95;;;4.13;;
25123;SDS011;13104;51.030;4.686;2022-08-16T12:24:40;10.57;;;4.15;;
25123;SDS011;13104;51.030;4.686;2022-08-16T12:27:06;8.15;;;4.63;;
25123;SDS011;13104;51.030;4.686;2022-08-16T12:29:32;6.78;;;4.32;;
25123;SDS011;13104;51.030;4.686;2022-08-16T12:31:59;7.55;;;4.53;;
25123;SDS011;13104;51.030;4.686;2022-08-16T12:34:25;7.32;;;4.60;;
25123;SDS011;13104;51.030;4.686;2022-08-16T12:36:51;12.85;;;4.50;;
25123;SDS011;13104;51.030;4.686;2022-08-16T12:39:17;11.38;;;4.50;;
25123;SDS011;13104;51.030;4.686;2022-08-16T12:41:45;7.18;;;3.78;;
25123;SDS011;13104;51.030;4.686;2022-08-16T12:44:12;5.88;;;3.83;;
25123;SDS011;13104;51.030;4.686;2022-08-16T12:46:38;9.25;;;4.15;;
25123;SDS011;13104;51.030;4.686;2022-08-16T12:49:05;7.38;;;4.18;;
25123;SDS011;13104;51.030;4.686;2022-08-16T12:51:36;9.25;;;4.43;;
25123;SDS011;13104;51.030;4.686;2022-08-16T12:54:04;7.30;;;4.40;;
25123;SDS011;13104;51.030;4.686;2022-08-16T12:56:33;8.77;;;4.40;;
25123;SDS011;13104;51.030;4.686;2022-08-16T12:59:00;10.00;;;4.30;;
25123;SDS011;13104;51.030;4.686;2022-08-16T13:01:31;10.75;;;4.20;;
25123;SDS011;13104;51.030;4.686;2022-08-16T13:03:58;7.38;;;4.38;;
25123;SDS011;13104;51.030;4.686;2022-08-16T13:06:25;9.00;;;4.55;;
25123;SDS011;13104;51.030;4.686;2022-08-16T13:08:51;9.68;;;4.25;;
25123;SDS011;13104;51.030;4.686;2022-08-16T13:11:20;13.98;;;4.45;;
25123;SDS011;13104;51.030;4.686;2022-08-16T13:13:48;6.30;;;3.78;;
25123;SDS011;13104;51.030;4.686;2022-08-16T13:16:14;6.43;;;3.80;;
25123;SDS011;13104;51.030;4.686;2022-08-16T13:18:40;10.90;;;4.03;;
25123;SDS011;13104;51.030;4.686;2022-08-16T13:21:07;9.55;;;4.20;;
25123;SDS011;13104;51.030;4.686;2022-08-16T13:23:34;11.00;;;4.63;;
25123;SDS011;13104;51.030;4.686;2022-08-16T13:26:01;9.80;;;4.90;;
25123;SDS011;13104;51.030;4.686;2022-08-16T13:28:27;9.77;;;4.60;;
25123;SDS011;13104;51.030;4.686;2022-08-16T13:30:54;9.45;;;4.53;;
25123;SDS011;13104;51.030;4.686;2022-08-16T13:33:22;10.27;;;4.43;;
25123;SDS011;13104;51.030;4.686;2022-08-16T13:35:50;8.38;;;4.57;;
25123;SDS011;13104;51.030;4.686;2022-08-16T13:38:17;7.68;;;4.47;;
25123;SDS011;13104;51.030;4.686;2022-08-16T13:40:43;7.60;;;4.22;;
25123;SDS011;13104;51.030;4.686;2022-08-16T13:43:09;11.63;;;4.28;;
25123;SDS011;13104;51.030;4.686;2022-08-16T13:45:35;11.02;;;4.80;;
25123;SDS011;13104;51.030;4.686;2022-08-16T13:48:02;9.95;;;4.90;;
25123;SDS011;13104;51.030;4.686;2022-08-16T13:50:29;8.32;;;4.82;;
25123;SDS011;13104;51.030;4.686;2022-08-16T13:52:55;10.73;;;4.70;;
25123;SDS011;13104;51.030;4.686;2022-08-16T13:55:22;9.57;;;4.50;;
25123;SDS011;13104;51.030;4.686;2022-08-16T13:57:48;7.57;;;4.95;;
25123;SDS011;13104;51.030;4.686;2022-08-16T14:00:15;12.60;;;4.60;;
25123;SDS011;13104;51.030;4.686;2022-08-16T14:02:41;7.85;;;4.60;;
25123;SDS011;13104;51.030;4.686;2022-08-16T14:05:08;9.80;;;4.38;;
25123;SDS011;13104;51.030;4.686;2022-08-16T14:07:34;5.85;;;4.35;;
25123;SDS011;13104;51.030;4.686;2022-08-16T14:10:03;8.05;;;4.40;;
25123;SDS011;13104;51.030;4.686;2022-08-16T14:12:29;13.13;;;4.45;;
25123;SDS011;13104;51.030;4.686;2022-08-16T14:14:56;10.55;;;5.07;;
25123;SDS011;13104;51.030;4.686;2022-08-16T14:17:23;8.63;;;4.68;;
25123;SDS011;13104;51.030;4.686;2022-08-16T14:19:49;8.60;;;4.35;;
25123;SDS011;13104;51.030;4.686;2022-08-16T14:22:17;9.68;;;4.55;;
25123;SDS011;13104;51.030;4.686;2022-08-16T14:24:45;11.00;;;4.75;;
25123;SDS011;13104;51.030;4.686;2022-08-16T14:27:11;8.30;;;4.78;;
25123;SDS011;13104;51.030;4.686;2022-08-16T14:29:38;14.40;;;4.68;;
25123;SDS011;13104;51.030;4.686;2022-08-16T14:32:05;9.55;;;4.50;;
25123;SDS011;13104;51.030;4.686;2022-08-16T14:34:31;8.18;;;4.78;;
25123;SDS011;13104;51.030;4.686;2022-08-16T14:36:58;8.82;;;4.47;;